createdAt,value
2019-02-21T00:00:30.882Z,6.73
2019-02-21T00:05:38.298Z,6.84
2019-02-21T00:10:45.554Z,7.02
2019-02-21T00:15:53.006Z,7.04
2019-02-21T00:21:00.323Z,7.07
2019-02-21T00:26:07.699Z,6.62
2019-02-21T00:31:27.866Z,7.23
2019-02-21T00:36:28.229Z,6.35
2019-02-21T00:41:16.409Z,6.87
2019-02-21T00:46:24.631Z,6.99
2019-02-21T00:51:45.729Z,7.17
2019-02-21T00:56:33.094Z,6.98
2019-02-21T01:01:40.335Z,7.74
2019-02-21T01:07:00.473Z,7.73
2019-02-21T01:11:48.745Z,7.79
2019-02-21T01:16:57.126Z,7.06
2019-02-21T01:22:04.416Z,7.24
2019-02-21T01:27:11.777Z,7.55
2019-02-21T01:32:19.155Z,7.66
2019-02-21T01:37:26.518Z,7.81
2019-02-21T01:42:33.797Z,8.13
2019-02-21T01:47:41.306Z,7.97
2019-02-21T01:58:04.992Z,8.20
2019-02-21T02:02:53.307Z,8.29
2019-02-21T02:08:13.450Z,8.18
2019-02-21T02:13:01.431Z,8.05
2019-02-21T02:18:08.971Z,7.49
2019-02-21T02:23:16.178Z,7.75
2019-02-21T02:33:24.477Z,9.14
2019-02-21T02:38:31.978Z,9.01
2019-02-21T02:43:39.233Z,10.40
2019-02-21T02:53:47.407Z,10.33
2019-02-21T02:58:54.986Z,10.49
2019-02-21T03:04:02.183Z,11.27
2019-02-21T03:09:09.697Z,11.14
2019-02-21T03:14:16.883Z,10.48
2019-02-21T03:19:24.248Z,10.01
2019-02-21T03:24:45.198Z,10.28
2019-02-21T03:29:32.512Z,9.57
2019-02-21T03:34:39.747Z,9.98
2019-02-21T03:39:47.064Z,9.76
2019-02-21T03:44:55.317Z,9.62
2019-02-21T03:50:02.579Z,8.71
2019-02-21T03:55:09.693Z,9.46
2019-02-21T04:00:18.112Z,8.68
2019-02-21T04:05:25.228Z,9.17
2019-02-21T04:10:33.531Z,9.05
2019-02-21T04:20:42.452Z,8.61
2019-02-21T04:26:02.601Z,8.37
2019-02-21T04:30:49.987Z,7.79
2019-02-21T04:35:57.251Z,7.49
2019-02-21T04:41:17.506Z,7.02
2019-02-21T04:46:04.760Z,7.85
2019-02-21T04:51:13.146Z,7.68
2019-02-21T04:56:20.244Z,7.34
2019-02-21T05:01:28.581Z,8.42
2019-02-21T05:06:36.662Z,7.24
2019-02-21T05:11:44.916Z,7.42
2019-02-21T05:16:53.259Z,6.61
2019-02-21T05:22:00.509Z,6.46
2019-02-21T05:27:08.730Z,6.22
2019-02-21T05:32:40.201Z,6.47
2019-02-21T05:37:29.269Z,7.23
2019-02-21T05:42:16.716Z,6.27
2019-02-21T05:47:23.992Z,6.19
2019-02-21T05:52:31.327Z,6.18
2019-02-21T05:57:38.635Z,6.37
2019-02-21T06:02:53.297Z,7.19
2019-02-21T06:07:53.099Z,6.48
2019-02-21T06:13:01.521Z,6.40
2019-02-21T06:18:08.782Z,6.16
2019-02-21T06:23:30.099Z,6.45
2019-02-21T06:28:17.353Z,6.09
2019-02-21T06:33:24.960Z,6.64
2019-02-21T06:38:33.608Z,6.79
2019-02-21T06:43:39.558Z,6.61
2019-02-21T06:48:46.689Z,6.40
2019-02-21T06:53:55.093Z,6.98
2019-02-21T06:59:16.076Z,6.35
2019-02-21T07:04:04.316Z,6.81
2019-02-21T07:09:11.510Z,7.10
2019-02-21T07:14:18.690Z,6.14
2019-02-21T07:19:26.928Z,6.28
2019-02-21T07:24:47.314Z,6.85
2019-02-21T07:29:35.507Z,5.80
2019-02-21T07:34:43.767Z,5.84
2019-02-21T07:39:51.955Z,6.06
2019-02-21T07:44:59.711Z,5.01
2019-02-21T07:50:06.545Z,5.49
2019-02-21T08:00:18.613Z,5.65
2019-02-21T08:05:25.877Z,4.79
2019-02-21T08:10:34.253Z,4.92
2019-02-21T08:15:41.379Z,4.49
2019-02-21T08:20:49.595Z,4.67
2019-02-21T08:26:09.670Z,4.18
2019-02-21T08:30:58.192Z,4.06
2019-02-21T08:36:05.130Z,3.99
2019-02-21T08:41:14.592Z,4.53
2019-02-21T08:46:33.730Z,4.00
2019-02-21T08:51:33.783Z,3.58
2019-02-21T08:56:34.882Z,3.22
2019-02-21T09:01:22.087Z,2.97
2019-02-21T09:06:42.122Z,2.93
2019-02-21T09:11:43.152Z,3.48
2019-02-21T09:16:31.634Z,2.58
2019-02-21T09:21:38.742Z,2.55
2019-02-21T09:26:47.279Z,2.42
2019-02-21T09:42:08.938Z,2.33
2019-02-21T09:46:57.200Z,2.38
2019-02-21T09:52:17.255Z,2.58
2019-02-21T09:57:12.758Z,2.70
2019-02-21T10:02:11.795Z,3.15
2019-02-21T10:07:32.922Z,2.88
2019-02-21T10:12:33.999Z,3.16
2019-02-21T10:17:21.544Z,2.94
2019-02-21T10:22:28.680Z,2.52
2019-02-21T10:27:37.986Z,2.59
2019-02-21T10:32:44.730Z,1.85
2019-02-21T10:37:51.949Z,2.25
2019-02-21T10:43:02.174Z,2.32
2019-02-21T10:47:59.512Z,1.93
2019-02-21T10:53:06.613Z,2.15
2019-02-21T10:58:15.082Z,1.81
2019-02-21T11:03:23.286Z,1.84
2019-02-21T11:08:31.631Z,1.97
2019-02-21T11:13:38.974Z,1.71
2019-02-21T11:19:00.103Z,1.68
2019-02-21T11:28:48.153Z,1.88
2019-02-21T11:33:55.251Z,1.59
2019-02-21T11:39:03.828Z,1.79
2019-02-21T11:44:11.079Z,1.96
2019-02-21T11:49:31.556Z,1.62
2019-02-21T11:54:26.479Z,1.72
2019-02-21T11:59:26.170Z,1.72
2019-02-21T12:04:46.258Z,2.06
2019-02-21T12:09:46.493Z,1.69
2019-02-21T12:14:33.773Z,1.80
2019-02-21T12:19:41.081Z,2.20
2019-02-21T12:24:48.180Z,2.38
2019-02-21T12:30:02.810Z,2.28
2019-02-21T12:35:13.873Z,2.06
2019-02-21T12:40:14.006Z,2.08
2019-02-21T12:45:02.200Z,2.39
2019-02-21T12:50:09.622Z,2.36
2019-02-21T12:55:11.036Z,3.05
2019-02-21T13:00:18.438Z,2.75
2019-02-21T13:05:18.834Z,2.61
2019-02-21T13:10:26.046Z,2.86
2019-02-21T13:15:34.336Z,2.49
2019-02-21T13:20:41.762Z,2.58
2019-02-21T13:25:49.181Z,2.39
2019-02-21T13:31:09.596Z,2.65
2019-02-21T13:35:56.727Z,2.65
2019-02-21T13:41:05.031Z,2.18
2019-02-21T13:46:36.491Z,3.74
2019-02-21T13:51:13.522Z,2.61
2019-02-21T13:56:34.467Z,2.16
2019-02-21T14:01:35.533Z,2.80
2019-02-21T14:06:23.821Z,2.38
2019-02-21T14:11:44.081Z,4.26
2019-02-21T14:16:38.727Z,3.13
2019-02-21T14:21:43.608Z,2.51
2019-02-21T14:26:48.675Z,2.54
2019-02-21T14:31:55.983Z,2.82
2019-02-21T14:37:04.119Z,3.04
2019-02-21T14:42:12.868Z,2.74
2019-02-21T14:47:32.961Z,2.73
2019-02-21T14:52:20.206Z,2.29
2019-02-21T14:57:28.322Z,2.56
2019-02-21T15:02:49.566Z,3.32
2019-02-21T15:07:36.645Z,2.73
2019-02-21T15:12:45.037Z,2.15
2019-02-21T15:17:54.192Z,2.36
2019-02-21T15:22:53.987Z,2.50
2019-02-21T15:28:00.203Z,2.65
2019-02-21T15:33:20.645Z,2.84
2019-02-21T15:38:22.760Z,3.05
2019-02-21T15:43:21.301Z,2.32
2019-02-21T15:48:21.471Z,2.68
2019-02-21T15:53:11.557Z,2.73
2019-02-21T15:58:31.540Z,2.50
2019-02-21T16:03:32.605Z,2.58
2019-02-21T16:08:20.729Z,3.16
2019-02-21T16:13:42.226Z,2.73
2019-02-21T16:18:29.209Z,2.75
2019-02-21T16:23:36.669Z,2.86
2019-02-21T16:28:43.722Z,2.52
2019-02-21T16:34:04.832Z,2.57
2019-02-21T16:43:56.283Z,2.85
2019-02-21T16:54:18.360Z,3.31
2019-02-21T16:59:05.606Z,3.30
2019-02-21T17:14:30.956Z,3.79
2019-02-21T17:24:35.007Z,3.71
2019-02-21T17:39:39.790Z,4.49
2019-02-21T17:44:41.196Z,3.98
2019-02-21T17:49:41.376Z,6.24
2019-02-21T17:59:31.705Z,4.90
2019-02-21T18:04:40.043Z,4.84
2019-02-21T18:09:46.764Z,5.62
2019-02-21T18:14:54.174Z,5.45
2019-02-21T18:20:14.179Z,4.71
2019-02-21T18:25:02.733Z,4.90
2019-02-21T18:30:09.920Z,4.64
2019-02-21T18:35:18.285Z,4.29
2019-02-21T18:45:42.221Z,4.55
2019-02-21T18:50:42.420Z,5.02
2019-02-21T19:00:30.719Z,4.66
2019-02-21T19:05:39.058Z,4.59
2019-02-21T19:10:59.359Z,4.81
2019-02-21T19:15:46.761Z,5.70
2019-02-21T19:20:53.962Z,5.24
2019-02-21T19:26:01.307Z,5.62
2019-02-21T19:31:21.515Z,5.70
2019-02-21T19:36:08.811Z,5.54
2019-02-21T19:41:28.999Z,6.44
2019-02-21T19:46:17.289Z,7.79
2019-02-21T19:51:23.959Z,7.04
2019-02-21T19:56:32.174Z,7.47
2019-02-21T20:01:40.460Z,8.08
2019-02-21T20:06:47.783Z,8.03
2019-02-21T20:11:54.893Z,8.32
2019-02-21T20:17:03.068Z,7.28
2019-02-21T20:22:24.202Z,6.52
2019-02-21T20:27:11.609Z,8.18
2019-02-21T20:32:18.832Z,7.57
2019-02-21T20:37:26.238Z,7.67
2019-02-21T20:42:34.439Z,8.63
2019-02-21T20:47:54.642Z,9.09
2019-02-21T20:52:42.883Z,9.65
2019-02-21T21:02:52.326Z,11.02
2019-02-21T21:08:12.468Z,9.98
2019-02-21T21:13:00.801Z,10.31
2019-02-21T21:23:09.946Z,10.32
2019-02-21T21:28:17.329Z,11.75
2019-02-21T21:33:24.438Z,11.12
2019-02-21T21:43:46.518Z,11.78
2019-02-21T21:48:33.695Z,11.61
2019-02-21T21:53:41.906Z,12.33
2019-02-21T21:59:02.203Z,12.59
2019-02-21T22:04:02.280Z,12.93
2019-02-21T22:08:49.666Z,12.64
2019-02-21T22:14:09.771Z,13.86
2019-02-21T22:18:58.272Z,12.83
2019-02-21T22:24:05.373Z,12.83
2019-02-21T22:29:13.603Z,13.41
2019-02-21T22:34:21.748Z,13.33
2019-02-21T22:39:42.007Z,12.39
2019-02-21T22:44:29.075Z,13.35
2019-02-21T22:49:50.120Z,12.91
2019-02-21T22:54:38.214Z,15.02
2019-02-21T23:00:52.145Z,18.19
2019-02-21T23:06:00.198Z,14.34
2019-02-21T23:11:08.781Z,14.22
2019-02-21T23:16:16.970Z,13.80
2019-02-21T23:21:24.382Z,13.95
2019-02-21T23:26:31.542Z,14.93
2019-02-21T23:31:39.020Z,14.29
2019-02-21T23:36:46.213Z,14.15
2019-02-21T23:41:54.524Z,14.45
2019-02-21T23:47:14.701Z,13.98
2019-02-21T23:52:03.541Z,14.72
2019-02-21T23:57:10.709Z,14.77
